sensor_id;sensor_type;location;lat;lon;timestamp;pressure;altitude;pressure_sealevel;temperature;humidity
65800;BME280;52544;48.116;11.660;2023-05-28T00:01:05;95734.25;;;12.38;100.00
65800;BME280;52544;48.116;11.660;2023-05-28T00:03:31;95734.78;;;12.22;100.00
65800;BME280;52544;48.116;11.660;2023-05-28T00:06:01;95741.50;;;12.17;100.00
65800;BME280;52544;48.116;11.660;2023-05-28T00:08:27;95730.97;;;12.06;100.00
65800;BME280;52544;48.116;11.660;2023-05-28T00:10:52;95731.13;;;12.04;100.00
65800;BME280;52544;48.116;11.660;2023-05-28T00:13:28;95728.22;;;12.07;100.00
65800;BME280;52544;48.116;11.660;2023-05-28T00:15:54;95725.25;;;12.10;100.00
65800;BME280;52544;48.116;11.660;2023-05-28T00:18:20;95722.44;;;12.02;100.00
65800;BME280;52544;48.116;11.660;2023-05-28T00:20:46;95721.06;;;11.98;100.00
65800;BME280;52544;48.116;11.660;2023-05-28T00:23:13;95729.97;;;11.87;100.00
65800;BME280;52544;48.116;11.660;2023-05-28T00:25:39;95720.16;;;11.78;100.00
65800;BME280;52544;48.116;11.660;2023-05-28T00:28:04;95727.38;;;11.76;100.00
65800;BME280;52544;48.116;11.660;2023-05-28T00:30:32;95721.22;;;11.66;100.00
65800;BME280;52544;48.116;11.660;2023-05-28T00:32:58;95722.91;;;11.76;100.00
65800;BME280;52544;48.116;11.660;2023-05-28T00:35:23;95722.81;;;11.78;100.00
65800;BME280;52544;48.116;11.660;2023-05-28T00:37:48;95716.66;;;11.77;100.00
65800;BME280;52544;48.116;11.660;2023-05-28T00:40:14;95723.28;;;11.93;100.00
65800;BME280;52544;48.116;11.660;2023-05-28T00:42:43;95721.06;;;11.98;100.00
65800;BME280;52544;48.116;11.660;2023-05-28T00:45:10;95717.72;;;11.96;100.00
65800;BME280;52544;48.116;11.660;2023-05-28T00:47:37;95711.19;;;11.69;100.00
65800;BME280;52544;48.116;11.660;2023-05-28T00:50:05;95716.59;;;11.58;100.00
65800;BME280;52544;48.116;11.660;2023-05-28T00:52:31;95714.75;;;11.49;100.00
65800;BME280;52544;48.116;11.660;2023-05-28T00:54:57;95715.00;;;11.46;100.00
65800;BME280;52544;48.116;11.660;2023-05-28T00:57:23;95717.94;;;11.43;100.00
65800;BME280;52544;48.116;11.660;2023-05-28T00:59:53;95709.66;;;11.36;100.00
65800;BME280;52544;48.116;11.660;2023-05-28T01:02:22;95719.91;;;11.20;100.00
65800;BME280;52544;48.116;11.660;2023-05-28T01:04:48;95721.16;;;11.25;100.00
65800;BME280;52544;48.116;11.660;2023-05-28T01:07:13;95722.09;;;11.15;100.00
65800;BME280;52544;48.116;11.660;2023-05-28T01:09:39;95724.91;;;11.13;100.00
65800;BME280;52544;48.116;11.660;2023-05-28T01:12:06;95724.59;;;11.16;100.00
65800;BME280;52544;48.116;11.660;2023-05-28T01:14:33;95722.16;;;11.24;100.00
65800;BME280;52544;48.116;11.660;2023-05-28T01:17:02;95722.16;;;11.24;100.00
65800;BME280;52544;48.116;11.660;2023-05-28T01:19:29;95726.50;;;11.56;100.00
65800;BME280;52544;48.116;11.660;2023-05-28T01:22:04;95719.00;;;11.71;100.00
65800;BME280;52544;48.116;11.660;2023-05-28T01:24:34;95715.50;;;11.70;100.00
65800;BME280;52544;48.116;11.660;2023-05-28T01:27:02;95714.38;;;11.63;100.00
65800;BME280;52544;48.116;11.660;2023-05-28T01:29:27;95712.84;;;11.61;100.00
65800;BME280;52544;48.116;11.660;2023-05-28T01:31:53;95708.50;;;11.29;100.00
65800;BME280;52544;48.116;11.660;2023-05-28T01:34:18;95708.66;;;11.27;100.00
65800;BME280;52544;48.116;11.660;2023-05-28T01:36:52;95706.88;;;11.38;100.00
65800;BME280;52544;48.116;11.660;2023-05-28T01:39:20;95711.50;;;11.15;100.00
65800;BME280;52544;48.116;11.660;2023-05-28T01:41:48;95704.59;;;11.23;100.00
65800;BME280;52544;48.116;11.660;2023-05-28T01:44:15;95698.31;;;11.24;100.00
65800;BME280;52544;48.116;11.660;2023-05-28T01:46:45;95702.06;;;11.52;100.00
65800;BME280;52544;48.116;11.660;2023-05-28T01:49:11;95702.97;;;11.42;100.00
65800;BME280;52544;48.116;11.660;2023-05-28T01:51:37;95696.09;;;11.60;100.00
65800;BME280;52544;48.116;11.660;2023-05-28T01:54:03;95699.25;;;11.44;100.00
65800;BME280;52544;48.116;11.660;2023-05-28T01:56:29;95700.69;;;11.27;100.00
65800;BME280;52544;48.116;11.660;2023-05-28T01:58:54;95703.72;;;11.13;100.00
65800;BME280;52544;48.116;11.660;2023-05-28T02:01:31;95702.00;;;11.12;100.00
65800;BME280;52544;48.116;11.660;2023-05-28T02:03:58;95699.91;;;10.85;100.00
65800;BME280;52544;48.116;11.660;2023-05-28T02:06:25;95702.06;;;10.70;100.00
65800;BME280;52544;48.116;11.660;2023-05-28T02:08:51;95700.50;;;10.89;100.00
65800;BME280;52544;48.116;11.660;2023-05-28T02:11:16;95693.53;;;10.88;100.00
65800;BME280;52544;48.116;11.660;2023-05-28T02:13:42;95691.72;;;10.67;100.00
65800;BME280;52544;48.116;11.660;2023-05-28T02:16:08;95690.88;;;10.67;100.00
65800;BME280;52544;48.116;11.660;2023-05-28T02:18:36;95687.25;;;10.47;100.00
65800;BME280;52544;48.116;11.660;2023-05-28T02:21:03;95690.47;;;10.50;100.00
65800;BME280;52544;48.116;11.660;2023-05-28T02:23:28;95692.34;;;10.39;100.00
65800;BME280;52544;48.116;11.660;2023-05-28T02:25:54;95685.81;;;10.43;100.00
65800;BME280;52544;48.116;11.660;2023-05-28T02:28:19;95684.63;;;10.36;100.00
65800;BME280;52544;48.116;11.660;2023-05-28T02:30:45;95682.00;;;10.36;100.00
65800;BME280;52544;48.116;11.660;2023-05-28T02:33:10;95685.50;;;10.57;100.00
65800;BME280;52544;48.116;11.660;2023-05-28T02:35:36;95691.28;;;10.62;100.00
65800;BME280;52544;48.116;11.660;2023-05-28T02:38:01;95687.69;;;10.94;100.00
65800;BME280;52544;48.116;11.660;2023-05-28T02:40:26;95689.91;;;10.89;100.00
65800;BME280;52544;48.116;11.660;2023-05-28T02:42:52;95691.31;;;10.93;100.00
65800;BME280;52544;48.116;11.660;2023-05-28T02:45:17;95685.63;;;10.97;100.00
65800;BME280;52544;48.116;11.660;2023-05-28T02:47:43;95692.19;;;11.03;100.00
65800;BME280;52544;48.116;11.660;2023-05-28T02:50:08;95693.19;;;10.81;100.00
65800;BME280;52544;48.116;11.660;2023-05-28T02:52:34;95699.22;;;10.62;100.00
65800;BME280;52544;48.116;11.660;2023-05-28T02:54:59;95701.94;;;10.40;100.00
65800;BME280;52544;48.116;11.660;2023-05-28T02:57:25;95699.59;;;10.14;100.00
65800;BME280;52544;48.116;11.660;2023-05-28T02:59:51;95703.97;;;10.04;100.00
65800;BME280;52544;48.116;11.660;2023-05-28T03:02:16;95707.59;;;10.03;100.00
65800;BME280;52544;48.116;11.660;2023-05-28T03:04:41;95713.34;;;9.97;100.00
65800;BME280;52544;48.116;11.660;2023-05-28T03:07:08;95719.41;;;9.88;100.00
65800;BME280;52544;48.116;11.660;2023-05-28T03:09:35;95719.06;;;9.70;100.00
65800;BME280;52544;48.116;11.660;2023-05-28T03:12:01;95720.38;;;9.75;100.00
65800;BME280;52544;48.116;11.660;2023-05-28T03:14:26;95720.13;;;9.67;100.00
65800;BME280;52544;48.116;11.660;2023-05-28T03:16:52;95721.34;;;9.74;100.00
65800;BME280;52544;48.116;11.660;2023-05-28T03:19:17;95721.56;;;9.83;100.00
65800;BME280;52544;48.116;11.660;2023-05-28T03:21:42;95718.69;;;9.74;100.00
65800;BME280;52544;48.116;11.660;2023-05-28T03:24:08;95732.88;;;9.73;100.00
65800;BME280;52544;48.116;11.660;2023-05-28T03:26:33;95727.59;;;9.73;100.00
65800;BME280;52544;48.116;11.660;2023-05-28T03:28:58;95720.88;;;9.69;100.00
65800;BME280;52544;48.116;11.660;2023-05-28T03:31:28;95726.16;;;9.69;100.00
65800;BME280;52544;48.116;11.660;2023-05-28T03:33:54;95721.56;;;9.71;100.00
65800;BME280;52544;48.116;11.660;2023-05-28T03:36:21;95716.19;;;9.73;100.00
65800;BME280;52544;48.116;11.660;2023-05-28T03:38:47;95721.69;;;9.81;100.00
65800;BME280;52544;48.116;11.660;2023-05-28T03:41:12;95726.03;;;9.71;100.00
65800;BME280;52544;48.116;11.660;2023-05-28T03:43:38;95726.84;;;9.83;100.00
65800;BME280;52544;48.116;11.660;2023-05-28T03:46:03;95734.03;;;10.03;100.00
65800;BME280;52544;48.116;11.660;2023-05-28T03:48:28;95726.34;;;9.89;100.00
65800;BME280;52544;48.116;11.660;2023-05-28T03:50:54;95711.53;;;10.09;100.00
65800;BME280;52544;48.116;11.660;2023-05-28T03:53:19;95715.09;;;10.30;100.00
65800;BME280;52544;48.116;11.660;2023-05-28T03:55:45;95717.28;;;10.25;100.00
65800;BME280;52544;48.116;11.660;2023-05-28T03:58:10;95718.47;;;10.21;100.00
65800;BME280;52544;48.116;11.660;2023-05-28T04:00:39;95719.44;;;10.20;100.00
65800;BME280;52544;48.116;11.660;2023-05-28T04:03:04;95720.53;;;10.17;100.00
65800;BME280;52544;48.116;11.660;2023-05-28T04:05:30;95718.53;;;10.42;100.00
65800;BME280;52544;48.116;11.660;2023-05-28T04:07:56;95716.75;;;10.63;100.00
65800;BME280;52544;48.116;11.660;2023-05-28T04:10:21;95715.16;;;10.72;100.00
65800;BME280;52544;48.116;11.660;2023-05-28T04:12:46;95721.72;;;10.57;100.00
65800;BME280;52544;48.116;11.660;2023-05-28T04:15:12;95715.09;;;10.62;100.00
65800;BME280;52544;48.116;11.660;2023-05-28T04:17:37;95721.06;;;10.64;100.00
65800;BME280;52544;48.116;11.660;2023-05-28T04:20:03;95719.66;;;10.60;100.00
65800;BME280;52544;48.116;11.660;2023-05-28T04:22:31;95726.50;;;10.63;100.00
65800;BME280;52544;48.116;11.660;2023-05-28T04:24:56;95716.50;;;10.87;100.00
65800;BME280;52544;48.116;11.660;2023-05-28T04:27:22;95717.72;;;11.04;100.00
65800;BME280;52544;48.116;11.660;2023-05-28T04:29:48;95721.84;;;11.18;100.00
65800;BME280;52544;48.116;11.660;2023-05-28T04:32:14;95712.56;;;11.33;100.00
65800;BME280;52544;48.116;11.660;2023-05-28T04:34:39;95721.53;;;11.42;100.00
65800;BME280;52544;48.116;11.660;2023-05-28T04:37:08;95724.97;;;11.63;100.00
65800;BME280;52544;48.116;11.660;2023-05-28T04:39:33;95728.75;;;11.61;100.00
65800;BME280;52544;48.116;11.660;2023-05-28T04:41:59;95726.31;;;11.48;100.00
65800;BME280;52544;48.116;11.660;2023-05-28T04:44:29;95727.81;;;11.41;100.00
65800;BME280;52544;48.116;11.660;2023-05-28T04:46:55;95733.66;;;11.35;100.00
65800;BME280;52544;48.116;11.660;2023-05-28T04:49:24;95728.53;;;11.43;100.00
65800;BME280;52544;48.116;11.660;2023-05-28T04:51:50;95738.41;;;11.41;100.00
65800;BME280;52544;48.116;11.660;2023-05-28T04:54:15;95740.44;;;11.58;100.00
65800;BME280;52544;48.116;11.660;2023-05-28T04:56:41;95734.91;;;11.71;100.00
65800;BME280;52544;48.116;11.660;2023-05-28T04:59:06;95738.25;;;11.94;100.00
65800;BME280;52544;48.116;11.660;2023-05-28T05:01:35;95740.03;;;11.93;100.00
65800;BME280;52544;48.116;11.660;2023-05-28T05:04:01;95737.56;;;12.11;100.00
65800;BME280;52544;48.116;11.660;2023-05-28T05:06:26;95738.69;;;12.18;100.00
65800;BME280;52544;48.116;11.660;2023-05-28T05:08:52;95741.22;;;12.20;100.00
65800;BME280;52544;48.116;11.660;2023-05-28T05:11:19;95745.66;;;12.10;100.00
65800;BME280;52544;48.116;11.660;2023-05-28T05:13:45;95739.13;;;12.23;100.00
65800;BME280;52544;48.116;11.660;2023-05-28T05:16:10;95737.88;;;12.47;100.00
65800;BME280;52544;48.116;11.660;2023-05-28T05:18:36;95745.16;;;12.64;100.00
65800;BME280;52544;48.116;11.660;2023-05-28T05:21:01;95746.56;;;12.68;100.00
65800;BME280;52544;48.116;11.660;2023-05-28T05:23:27;95736.50;;;12.72;100.00
65800;BME280;52544;48.116;11.660;2023-05-28T05:25:52;95737.91;;;12.76;100.00
65800;BME280;52544;48.116;11.660;2023-05-28T05:28:18;95735.50;;;12.83;100.00
65800;BME280;52544;48.116;11.660;2023-05-28T05:30:43;95740.13;;;12.90;100.00
65800;BME280;52544;48.116;11.660;2023-05-28T05:33:09;95737.47;;;13.00;100.00
65800;BME280;52544;48.116;11.660;2023-05-28T05:35:34;95729.91;;;12.95;100.00
65800;BME280;52544;48.116;11.660;2023-05-28T05:38:00;95733.41;;;13.06;100.00
65800;BME280;52544;48.116;11.660;2023-05-28T05:40:26;95741.78;;;13.11;100.00
65800;BME280;52544;48.116;11.660;2023-05-28T05:42:52;95744.72;;;13.17;100.00
65800;BME280;52544;48.116;11.660;2023-05-28T05:45:17;95747.81;;;13.22;100.00
65800;BME280;52544;48.116;11.660;2023-05-28T05:47:43;95733.78;;;13.30;100.00
65800;BME280;52544;48.116;11.660;2023-05-28T05:50:10;95737.53;;;13.47;100.00
65800;BME280;52544;48.116;11.660;2023-05-28T05:52:36;95734.16;;;13.45;100.00
65800;BME280;52544;48.116;11.660;2023-05-28T05:55:02;95732.00;;;13.58;100.00
65800;BME280;52544;48.116;11.660;2023-05-28T05:57:27;95738.00;;;13.70;100.00
65800;BME280;52544;48.116;11.660;2023-05-28T05:59:53;95737.50;;;13.84;100.00
65800;BME280;52544;48.116;11.660;2023-05-28T06:02:19;95739.88;;;13.87;100.00
65800;BME280;52544;48.116;11.660;2023-05-28T06:04:44;95737.47;;;13.94;100.00
65800;BME280;52544;48.116;11.660;2023-05-28T06:07:10;95733.53;;;13.98;100.00
65800;BME280;52544;48.116;11.660;2023-05-28T06:09:35;95733.91;;;14.03;100.00
65800;BME280;52544;48.116;11.660;2023-05-28T06:12:01;95730.25;;;14.04;100.00
65800;BME280;52544;48.116;11.660;2023-05-28T06:14:27;95734.25;;;14.18;100.00
65800;BME280;52544;48.116;11.660;2023-05-28T06:16:53;95730.16;;;14.23;100.00
65800;BME280;52544;48.116;11.660;2023-05-28T06:19:18;95726.06;;;14.29;100.00
65800;BME280;52544;48.116;11.660;2023-05-28T06:21:44;95720.13;;;14.35;100.00
65800;BME280;52544;48.116;11.660;2023-05-28T06:24:09;95727.34;;;14.43;100.00
65800;BME280;52544;48.116;11.660;2023-05-28T06:26:35;95730.22;;;14.59;100.00
65800;BME280;52544;48.116;11.660;2023-05-28T06:29:00;95730.59;;;14.64;100.00
65800;BME280;52544;48.116;11.660;2023-05-28T06:31:26;95733.19;;;14.74;100.00
65800;BME280;52544;48.116;11.660;2023-05-28T06:33:51;95730.72;;;14.81;100.00
65800;BME280;52544;48.116;11.660;2023-05-28T06:36:16;95740.63;;;14.88;100.00
65800;BME280;52544;48.116;11.660;2023-05-28T06:38:43;95732.25;;;15.01;100.00
65800;BME280;52544;48.116;11.660;2023-05-28T06:41:08;95733.66;;;15.13;100.00
65800;BME280;52544;48.116;11.660;2023-05-28T06:43:35;95727.28;;;15.32;100.00
65800;BME280;52544;48.116;11.660;2023-05-28T06:46:01;95733.88;;;15.46;97.78
65800;BME280;52544;48.116;11.660;2023-05-28T06:48:26;95740.56;;;15.50;97.62
65800;BME280;52544;48.116;11.660;2023-05-28T06:50:52;95736.94;;;15.51;96.55
65800;BME280;52544;48.116;11.660;2023-05-28T06:53:17;95741.91;;;15.54;96.74
65800;BME280;52544;48.116;11.660;2023-05-28T06:55:43;95735.66;;;15.63;97.12
65800;BME280;52544;48.116;11.660;2023-05-28T06:58:08;95734.41;;;15.75;100.00
65800;BME280;52544;48.116;11.660;2023-05-28T07:00:33;95730.34;;;15.63;95.52
65800;BME280;52544;48.116;11.660;2023-05-28T07:02:59;95734.25;;;15.77;99.48
65800;BME280;52544;48.116;11.660;2023-05-28T07:05:24;95737.25;;;15.74;96.73
65800;BME280;52544;48.116;11.660;2023-05-28T07:07:50;95737.50;;;15.89;94.01
65800;BME280;52544;48.116;11.660;2023-05-28T07:10:16;95734.53;;;16.00;92.96
65800;BME280;52544;48.116;11.660;2023-05-28T07:12:41;95741.56;;;16.09;92.85
65800;BME280;52544;48.116;11.660;2023-05-28T07:15:07;95732.22;;;16.13;93.38
65800;BME280;52544;48.116;11.660;2023-05-28T07:17:32;95738.56;;;16.12;89.06
65800;BME280;52544;48.116;11.660;2023-05-28T07:19:58;95736.47;;;16.24;88.24
65800;BME280;52544;48.116;11.660;2023-05-28T07:22:23;95731.28;;;16.31;93.27
65800;BME280;52544;48.116;11.660;2023-05-28T07:24:50;95732.84;;;16.49;89.62
65800;BME280;52544;48.116;11.660;2023-05-28T07:27:15;95730.03;;;16.59;88.97
65800;BME280;52544;48.116;11.660;2023-05-28T07:29:41;95728.25;;;16.76;88.85
65800;BME280;52544;48.116;11.660;2023-05-28T07:32:06;95720.56;;;16.89;81.49
65800;BME280;52544;48.116;11.660;2023-05-28T07:34:32;95722.41;;;16.89;81.90
65800;BME280;52544;48.116;11.660;2023-05-28T07:36:57;95723.25;;;17.06;79.88
65800;BME280;52544;48.116;11.660;2023-05-28T07:39:22;95718.56;;;16.99;79.03
65800;BME280;52544;48.116;11.660;2023-05-28T07:41:48;95720.56;;;17.14;80.23
65800;BME280;52544;48.116;11.660;2023-05-28T07:44:14;95720.56;;;17.22;84.50
65800;BME280;52544;48.116;11.660;2023-05-28T07:46:41;95728.38;;;17.40;83.13
65800;BME280;52544;48.116;11.660;2023-05-28T07:49:06;95727.75;;;17.38;75.00
65800;BME280;52544;48.116;11.660;2023-05-28T07:51:32;95723.34;;;17.45;81.67
65800;BME280;52544;48.116;11.660;2023-05-28T07:53:58;95721.97;;;17.65;81.58
65800;BME280;52544;48.116;11.660;2023-05-28T07:56:23;95725.81;;;17.79;78.07
65800;BME280;52544;48.116;11.660;2023-05-28T07:58:49;95718.06;;;17.92;75.43
65800;BME280;52544;48.116;11.660;2023-05-28T08:01:14;95720.06;;;17.98;77.06
65800;BME280;52544;48.116;11.660;2023-05-28T08:03:41;95715.53;;;18.07;76.97
65800;BME280;52544;48.116;11.660;2023-05-28T08:06:06;95719.97;;;18.23;80.56
65800;BME280;52544;48.116;11.660;2023-05-28T08:08:33;95709.06;;;18.24;75.96
65800;BME280;52544;48.116;11.660;2023-05-28T08:10:59;95707.66;;;18.37;75.48
65800;BME280;52544;48.116;11.660;2023-05-28T08:13:24;95707.38;;;18.32;74.63
65800;BME280;52544;48.116;11.660;2023-05-28T08:15:50;95712.19;;;18.36;74.45
65800;BME280;52544;48.116;11.660;2023-05-28T08:18:15;95706.94;;;18.43;73.87
65800;BME280;52544;48.116;11.660;2023-05-28T08:20:41;95710.78;;;18.48;71.88
65800;BME280;52544;48.116;11.660;2023-05-28T08:23:07;95709.72;;;18.58;68.43
65800;BME280;52544;48.116;11.660;2023-05-28T08:25:32;95704.31;;;18.66;77.18
65800;BME280;52544;48.116;11.660;2023-05-28T08:27:58;95699.78;;;18.66;68.50
65800;BME280;52544;48.116;11.660;2023-05-28T08:30:23;95709.66;;;18.74;67.42
65800;BME280;52544;48.116;11.660;2023-05-28T08:32:49;95706.72;;;18.84;69.62
65800;BME280;52544;48.116;11.660;2023-05-28T08:35:14;95702.00;;;18.86;64.42
65800;BME280;52544;48.116;11.660;2023-05-28T08:37:40;95698.63;;;18.92;64.91
65800;BME280;52544;48.116;11.660;2023-05-28T08:40:06;95687.34;;;18.96;70.21
65800;BME280;52544;48.116;11.660;2023-05-28T08:42:37;95692.91;;;18.95;66.48
65800;BME280;52544;48.116;11.660;2023-05-28T08:45:03;95696.16;;;19.05;70.53
65800;BME280;52544;48.116;11.660;2023-05-28T08:47:31;95690.06;;;19.11;66.04
65800;BME280;52544;48.116;11.660;2023-05-28T08:49:59;95702.84;;;19.09;62.95
65800;BME280;52544;48.116;11.660;2023-05-28T08:52:27;95689.97;;;19.05;61.68
65800;BME280;52544;48.116;11.660;2023-05-28T08:54:56;95692.38;;;19.14;60.59
65800;BME280;52544;48.116;11.660;2023-05-28T08:57:22;95694.06;;;19.15;57.75
65800;BME280;52544;48.116;11.660;2023-05-28T08:59:48;95693.97;;;19.23;58.75
65800;BME280;52544;48.116;11.660;2023-05-28T09:02:13;95689.91;;;19.28;59.92
65800;BME280;52544;48.116;11.660;2023-05-28T09:04:39;95686.59;;;19.40;57.16
65800;BME280;52544;48.116;11.660;2023-05-28T09:07:05;95688.09;;;19.43;55.31
65800;BME280;52544;48.116;11.660;2023-05-28T09:09:31;95680.69;;;19.45;56.75
65800;BME280;52544;48.116;11.660;2023-05-28T09:12:03;95694.50;;;19.42;52.06
65800;BME280;52544;48.116;11.660;2023-05-28T09:14:31;95680.25;;;19.56;62.04
65800;BME280;52544;48.116;11.660;2023-05-28T09:17:02;95689.97;;;19.57;50.08
65800;BME280;52544;48.116;11.660;2023-05-28T09:19:27;95685.25;;;19.59;52.39
65800;BME280;52544;48.116;11.660;2023-05-28T09:21:57;95676.75;;;19.70;53.88
65800;BME280;52544;48.116;11.660;2023-05-28T09:24:23;95685.94;;;19.76;49.74
65800;BME280;52544;48.116;11.660;2023-05-28T09:26:55;95680.09;;;19.72;46.70
65800;BME280;52544;48.116;11.660;2023-05-28T09:29:23;95681.19;;;19.78;52.96
65800;BME280;52544;48.116;11.660;2023-05-28T09:31:56;95685.09;;;19.76;46.24
65800;BME280;52544;48.116;11.660;2023-05-28T09:34:26;95682.44;;;19.76;45.88
65800;BME280;52544;48.116;11.660;2023-05-28T09:36:51;95683.91;;;19.93;50.15
65800;BME280;52544;48.116;11.660;2023-05-28T09:39:17;95684.53;;;19.95;54.21
65800;BME280;52544;48.116;11.660;2023-05-28T09:41:43;95675.44;;;19.96;48.08
65800;BME280;52544;48.116;11.660;2023-05-28T09:44:09;95670.53;;;20.00;46.09
65800;BME280;52544;48.116;11.660;2023-05-28T09:46:36;95673.13;;;20.08;47.79
65800;BME280;52544;48.116;11.660;2023-05-28T09:49:03;95669.50;;;20.15;54.00
65800;BME280;52544;48.116;11.660;2023-05-28T09:51:31;95665.69;;;20.25;48.65
65800;BME280;52544;48.116;11.660;2023-05-28T09:54:01;95668.38;;;20.25;48.77
65800;BME280;52544;48.116;11.660;2023-05-28T09:56:29;95664.63;;;20.40;50.49
65800;BME280;52544;48.116;11.660;2023-05-28T09:58:57;95663.31;;;20.51;56.76
65800;BME280;52544;48.116;11.660;2023-05-28T10:01:25;95657.13;;;20.36;47.96
65800;BME280;52544;48.116;11.660;2023-05-28T10:03:59;95669.63;;;20.43;49.23
65800;BME280;52544;48.116;11.660;2023-05-28T10:06:27;95672.03;;;20.53;45.09
65800;BME280;52544;48.116;11.660;2023-05-28T10:08:54;95672.66;;;20.55;51.85
65800;BME280;52544;48.116;11.660;2023-05-28T10:11:26;95664.94;;;20.67;46.40
65800;BME280;52544;48.116;11.660;2023-05-28T10:13:57;95666.66;;;20.53;45.93
65800;BME280;52544;48.116;11.660;2023-05-28T10:16:23;95670.25;;;20.60;46.07
65800;BME280;52544;48.116;11.660;2023-05-28T10:18:49;95670.19;;;20.54;43.01
65800;BME280;52544;48.116;11.660;2023-05-28T10:21:15;95671.25;;;20.59;44.04
65800;BME280;52544;48.116;11.660;2023-05-28T10:23:41;95666.66;;;20.75;45.57
65800;BME280;52544;48.116;11.660;2023-05-28T10:26:08;95658.97;;;20.93;49.75
65800;BME280;52544;48.116;11.660;2023-05-28T10:28:33;95662.81;;;21.05;48.30
65800;BME280;52544;48.116;11.660;2023-05-28T10:31:06;95660.47;;;21.23;48.85
65800;BME280;52544;48.116;11.660;2023-05-28T10:33:37;95665.78;;;21.38;41.36
65800;BME280;52544;48.116;11.660;2023-05-28T10:36:03;95664.75;;;21.39;43.00
65800;BME280;52544;48.116;11.660;2023-05-28T10:38:29;95656.38;;;21.56;41.67
65800;BME280;52544;48.116;11.660;2023-05-28T10:41:01;95657.44;;;21.61;40.82
65800;BME280;52544;48.116;11.660;2023-05-28T10:46:15;95649.94;;;21.85;46.20
65800;BME280;52544;48.116;11.660;2023-05-28T10:48:41;95645.81;;;21.89;45.28
65800;BME280;52544;48.116;11.660;2023-05-28T10:51:07;95650.03;;;21.70;40.39
65800;BME280;52544;48.116;11.660;2023-05-28T10:53:33;95649.25;;;21.76;40.93
65800;BME280;52544;48.116;11.660;2023-05-28T10:56:00;95652.13;;;21.75;39.50
65800;BME280;52544;48.116;11.660;2023-05-28T10:58:27;95650.09;;;21.77;42.64
65800;BME280;52544;48.116;11.660;2023-05-28T11:03:44;95630.34;;;22.11;47.52
65800;BME280;52544;48.116;11.660;2023-05-28T11:06:11;95626.91;;;22.24;44.24
65800;BME280;52544;48.116;11.660;2023-05-28T11:08:47;95634.19;;;22.36;44.41
65800;BME280;52544;48.116;11.660;2023-05-28T11:11:15;95637.94;;;22.42;38.96
65800;BME280;52544;48.116;11.660;2023-05-28T11:13:48;95637.78;;;22.57;40.53
65800;BME280;52544;48.116;11.660;2023-05-28T11:16:18;95630.91;;;22.54;41.07
65800;BME280;52544;48.116;11.660;2023-05-28T11:19:01;95627.81;;;22.64;40.98
65800;BME280;52544;48.116;11.660;2023-05-28T11:21:27;95635.53;;;22.74;40.03
65800;BME280;52544;48.116;11.660;2023-05-28T11:24:03;95626.81;;;22.85;40.29
65800;BME280;52544;48.116;11.660;2023-05-28T11:26:30;95647.56;;;22.78;38.02
65800;BME280;52544;48.116;11.660;2023-05-28T11:28:56;95631.38;;;22.78;37.50
65800;BME280;52544;48.116;11.660;2023-05-28T11:31:21;95634.75;;;22.93;42.28
65800;BME280;52544;48.116;11.660;2023-05-28T11:33:50;95630.97;;;22.81;40.30
65800;BME280;52544;48.116;11.660;2023-05-28T11:36:15;95627.69;;;23.18;40.16
65800;BME280;52544;48.116;11.660;2023-05-28T11:38:41;95628.31;;;23.34;42.06
65800;BME280;52544;48.116;11.660;2023-05-28T11:41:06;95629.75;;;23.43;35.29
65800;BME280;52544;48.116;11.660;2023-05-28T11:43:31;95628.13;;;23.29;36.91
65800;BME280;52544;48.116;11.660;2023-05-28T11:45:58;95628.09;;;23.42;38.12
65800;BME280;52544;48.116;11.660;2023-05-28T11:48:25;95624.16;;;23.38;37.28
65800;BME280;52544;48.116;11.660;2023-05-28T11:51:01;95615.63;;;23.41;39.43
65800;BME280;52544;48.116;11.660;2023-05-28T11:53:45;95614.97;;;23.52;43.23
65800;BME280;52544;48.116;11.660;2023-05-28T11:56:11;95611.22;;;23.60;39.11
65800;BME280;52544;48.116;11.660;2023-05-28T11:58:37;95611.91;;;23.29;36.62
65800;BME280;52544;48.116;11.660;2023-05-28T12:01:05;95613.53;;;23.43;36.20
65800;BME280;52544;48.116;11.660;2023-05-28T12:03:31;95607.34;;;22.96;36.67
65800;BME280;52544;48.116;11.660;2023-05-28T12:05:56;95601.31;;;23.20;38.88
65800;BME280;52544;48.116;11.660;2023-05-28T12:08:22;95602.56;;;23.18;39.23
65800;BME280;52544;48.116;11.660;2023-05-28T12:10:47;95610.84;;;23.43;37.34
65800;BME280;52544;48.116;11.660;2023-05-28T12:13:13;95607.69;;;23.53;39.41
65800;BME280;52544;48.116;11.660;2023-05-28T12:15:39;95610.03;;;23.29;41.98
65800;BME280;52544;48.116;11.660;2023-05-28T12:18:04;95603.75;;;23.68;41.90
65800;BME280;52544;48.116;11.660;2023-05-28T12:20:36;95598.34;;;23.75;42.98
65800;BME280;52544;48.116;11.660;2023-05-28T12:23:07;95594.97;;;23.86;39.80
65800;BME280;52544;48.116;11.660;2023-05-28T12:28:09;95602.81;;;24.01;42.71
65800;BME280;52544;48.116;11.660;2023-05-28T12:30:35;95601.78;;;24.02;38.71
65800;BME280;52544;48.116;11.660;2023-05-28T12:33:01;95586.78;;;24.06;40.80
65800;BME280;52544;48.116;11.660;2023-05-28T12:35:27;95593.78;;;24.20;41.38
65800;BME280;52544;48.116;11.660;2023-05-28T12:37:52;95593.34;;;24.24;36.54
65800;BME280;52544;48.116;11.660;2023-05-28T12:40:18;95598.59;;;24.18;35.94
65800;BME280;52544;48.116;11.660;2023-05-28T12:42:43;95596.38;;;24.02;37.06
65800;BME280;52544;48.116;11.660;2023-05-28T12:45:09;95598.13;;;23.77;40.46
65800;BME280;52544;48.116;11.660;2023-05-28T12:47:34;95590.91;;;24.15;41.56
65800;BME280;52544;48.116;11.660;2023-05-28T12:50:00;95583.44;;;24.04;36.74